createdAt,value
2018-09-22T00:00:46.779Z,82.10
2018-09-22T00:01:52.052Z,82.50
2018-09-22T00:02:56.970Z,82.80
2018-09-22T00:04:01.990Z,84.40
2018-09-22T00:05:07.209Z,82.30
2018-09-22T00:06:13.193Z,83.50
2018-09-22T00:07:18.123Z,82.60
2018-09-22T00:08:22.714Z,83.10
2018-09-22T00:09:27.658Z,82.40
2018-09-22T00:10:32.330Z,84.20
2018-09-22T00:11:39.073Z,83.80
2018-09-22T00:12:43.629Z,83.60
2018-09-22T00:13:48.351Z,84.40
2018-09-22T00:14:52.951Z,83.80
2018-09-22T00:15:57.499Z,82.70
2018-09-22T00:17:02.492Z,81.60
2018-09-22T00:18:07.109Z,81.70
2018-09-22T00:19:11.884Z,81.80
2018-09-22T00:20:16.511Z,84.20
2018-09-22T00:21:21.504Z,84.70
2018-09-22T00:22:26.389Z,84.30
2018-09-22T00:23:31.401Z,84.10
2018-09-22T00:24:37.816Z,83.50
2018-09-22T00:25:42.519Z,83.20
2018-09-22T00:26:47.563Z,85.30
2018-09-22T00:27:52.392Z,79.90
2018-09-22T00:28:57.300Z,80.70
2018-09-22T00:30:03.014Z,79.10
2018-09-22T00:31:08.335Z,79.20
2018-09-22T00:32:13.160Z,78.60
2018-09-22T00:33:17.948Z,77.40
2018-09-22T00:34:22.804Z,80.10
2018-09-22T00:35:28.429Z,80.10
2018-09-22T00:36:34.390Z,82.20
2018-09-22T00:37:39.136Z,81.10
2018-09-22T00:38:43.860Z,81.60
2018-09-22T00:39:49.260Z,81.30
2018-09-22T00:40:53.975Z,81.10
2018-09-22T00:41:58.721Z,80.50
2018-09-22T00:43:04.052Z,80.50
2018-09-22T00:44:09.254Z,77.50
2018-09-22T00:45:14.551Z,81.70
2018-09-22T00:46:19.615Z,77.90
2018-09-22T00:47:24.545Z,78.20
2018-09-22T00:48:29.374Z,79.70
2018-09-22T00:49:34.509Z,82.40
2018-09-22T00:50:39.228Z,84.90
2018-09-22T00:51:45.712Z,83.10
2018-09-22T00:52:50.569Z,84.90
2018-09-22T00:54:58.405Z,85.20
2018-09-22T00:56:03.052Z,86.00
2018-09-22T00:57:08.115Z,85.50
2018-09-22T00:58:13.112Z,84.40
2018-09-22T00:59:18.040Z,85.00
2018-09-22T01:00:23.119Z,86.10
2018-09-22T01:01:28.591Z,85.20
2018-09-22T01:02:33.376Z,87.50
2018-09-22T01:03:38.392Z,86.60
2018-09-22T01:04:43.407Z,87.80
2018-09-22T01:05:48.402Z,87.30
2018-09-22T01:06:53.155Z,88.00
2018-09-22T01:07:57.734Z,86.40
2018-09-22T01:09:02.493Z,85.20
2018-09-22T01:10:07.653Z,85.70
2018-09-22T01:11:12.650Z,83.40
2018-09-22T01:12:17.385Z,85.50
2018-09-22T01:13:22.368Z,86.70
2018-09-22T01:14:27.646Z,86.90
2018-09-22T01:15:32.952Z,86.90
2018-09-22T01:16:38.542Z,82.20
2018-09-22T01:17:43.135Z,81.60
2018-09-22T01:18:47.703Z,81.90
2018-09-22T01:19:52.296Z,80.40
2018-09-22T01:20:57.395Z,81.70
2018-09-22T01:22:02.052Z,79.80
2018-09-22T01:23:06.675Z,82.10
2018-09-22T01:24:11.396Z,81.40
2018-09-22T01:25:16.067Z,82.00
2018-09-22T01:26:20.672Z,81.30
2018-09-22T01:27:25.273Z,82.60
2018-09-22T01:28:29.892Z,83.60
2018-09-22T01:29:34.538Z,81.70
2018-09-22T01:30:39.163Z,80.70
2018-09-22T01:31:44.214Z,83.60
2018-09-22T01:32:48.919Z,82.30
2018-09-22T01:33:53.652Z,84.40
2018-09-22T01:34:58.295Z,83.90
2018-09-22T01:36:02.953Z,86.50
2018-09-22T01:37:07.520Z,90.20
2018-09-22T01:38:12.285Z,90.80
2018-09-22T01:39:17.118Z,90.10
2018-09-22T01:40:23.131Z,90.20
2018-09-22T01:41:27.800Z,90.30
2018-09-22T01:42:32.455Z,86.90
2018-09-22T01:43:37.035Z,84.80
2018-09-22T01:44:41.645Z,86.00
2018-09-22T01:45:51.585Z,83.90
2018-09-22T01:47:00.235Z,82.40
2018-09-22T01:48:04.937Z,80.60
2018-09-22T01:49:09.591Z,82.20
2018-09-22T01:50:14.191Z,82.00
2018-09-22T01:51:18.943Z,82.40
2018-09-22T01:52:23.546Z,83.80
2018-09-22T01:53:28.535Z,82.50
2018-09-22T01:54:33.096Z,81.90
2018-09-22T01:55:37.735Z,82.00
2018-09-22T01:56:42.533Z,82.70
2018-09-22T01:57:47.144Z,82.70
2018-09-22T01:58:52.147Z,83.00
2018-09-22T01:59:56.768Z,82.60
2018-09-22T02:01:01.327Z,82.60
2018-09-22T02:02:05.907Z,82.50
2018-09-22T02:03:10.967Z,81.90
2018-09-22T02:04:15.820Z,82.60
2018-09-22T02:05:20.446Z,82.70
2018-09-22T02:06:25.259Z,82.90
2018-09-22T02:07:29.848Z,82.70
2018-09-22T02:08:34.448Z,82.90
2018-09-22T02:09:39.191Z,83.00
2018-09-22T02:10:43.940Z,82.60
2018-09-22T02:11:48.969Z,82.80
2018-09-22T02:12:53.728Z,82.80
2018-09-22T02:13:58.461Z,83.80
2018-09-22T02:15:03.257Z,83.00
2018-09-22T02:16:07.912Z,83.00
2018-09-22T02:17:12.928Z,83.10
2018-09-22T02:18:17.500Z,83.20
2018-09-22T02:19:22.392Z,83.30
2018-09-22T02:20:27.791Z,83.30
2018-09-22T02:21:32.358Z,83.60
2018-09-22T02:22:36.942Z,83.70
2018-09-22T02:23:41.499Z,84.00
2018-09-22T02:24:46.160Z,84.00
2018-09-22T02:25:50.743Z,84.00
2018-09-22T02:26:55.302Z,84.10
2018-09-22T02:28:00.792Z,84.20
2018-09-22T02:29:05.951Z,83.90
2018-09-22T02:30:10.543Z,84.10
2018-09-22T02:31:15.132Z,84.30
2018-09-22T02:32:20.821Z,84.00
2018-09-22T02:33:25.564Z,84.40
2018-09-22T02:34:30.287Z,84.90
2018-09-22T02:35:36.845Z,84.30
2018-09-22T02:36:41.417Z,84.60
2018-09-22T02:37:45.986Z,84.40
2018-09-22T02:38:51.663Z,84.90
2018-09-22T02:39:56.251Z,84.40
2018-09-22T02:41:01.274Z,84.60
2018-09-22T02:42:05.903Z,84.70
2018-09-22T02:43:10.483Z,84.90
2018-09-22T02:44:16.223Z,85.60
2018-09-22T02:45:21.061Z,84.70
2018-09-22T02:46:25.672Z,84.70
2018-09-22T02:47:33.575Z,84.80
2018-09-22T02:48:38.128Z,84.90
2018-09-22T02:49:42.754Z,84.80
2018-09-22T02:50:47.700Z,85.20
2018-09-22T02:51:52.452Z,85.20
2018-09-22T02:52:57.003Z,85.30
2018-09-22T02:54:01.918Z,85.40
2018-09-22T02:55:07.428Z,85.10
2018-09-22T02:56:12.639Z,85.00
2018-09-22T02:57:18.069Z,85.00
2018-09-22T02:58:22.872Z,84.90
2018-09-22T02:59:27.472Z,85.10
2018-09-22T03:00:32.260Z,85.20
2018-09-22T03:01:37.292Z,85.50
2018-09-22T03:02:41.923Z,85.90
2018-09-22T03:03:47.035Z,85.40
2018-09-22T03:04:51.963Z,85.50
2018-09-22T03:05:56.517Z,85.50
2018-09-22T03:07:01.389Z,85.30
2018-09-22T03:08:06.379Z,85.40
2018-09-22T03:09:11.965Z,85.30
2018-09-22T03:10:17.067Z,85.10
2018-09-22T03:11:21.639Z,85.20
2018-09-22T03:12:26.245Z,85.30
2018-09-22T03:13:30.865Z,85.30
2018-09-22T03:14:35.436Z,85.20
2018-09-22T03:15:40.280Z,85.20
2018-09-22T03:16:45.165Z,84.80
2018-09-22T03:17:49.739Z,90.00
2018-09-22T03:18:54.325Z,91.10
2018-09-22T03:19:58.915Z,90.10
2018-09-22T03:21:03.990Z,89.20
2018-09-22T03:22:10.930Z,89.30
2018-09-22T03:23:15.474Z,88.00
2018-09-22T03:24:20.170Z,90.30
2018-09-22T03:25:24.747Z,90.40
2018-09-22T03:26:29.633Z,91.00
2018-09-22T03:27:34.280Z,91.70
2018-09-22T03:28:39.356Z,91.50
2018-09-22T03:29:43.902Z,91.20
2018-09-22T03:30:48.474Z,91.40
2018-09-22T03:31:53.296Z,91.00
2018-09-22T03:32:58.816Z,92.00
2018-09-22T03:34:03.856Z,92.10
2018-09-22T03:35:08.683Z,91.10
2018-09-22T03:36:13.280Z,89.80
2018-09-22T03:37:17.864Z,89.30
2018-09-22T03:38:22.594Z,90.90
2018-09-22T03:39:27.350Z,92.10
2018-09-22T03:40:31.928Z,91.60
2018-09-22T03:41:36.848Z,91.60
2018-09-22T03:42:41.659Z,92.20
2018-09-22T03:43:46.423Z,92.30
2018-09-22T03:44:51.119Z,90.50
2018-09-22T03:45:55.680Z,91.30
2018-09-22T03:47:00.259Z,88.40
2018-09-22T03:48:05.302Z,88.20
2018-09-22T03:49:10.699Z,91.40
2018-09-22T03:52:11.613Z,89.10
2018-09-22T03:53:15.979Z,91.50
2018-09-22T03:54:20.249Z,91.90
2018-09-22T03:55:24.506Z,92.90
2018-09-22T03:56:29.029Z,92.10
2018-09-22T03:57:33.537Z,91.70
2018-09-22T03:58:37.774Z,91.50
2018-09-22T03:59:43.425Z,91.80
2018-09-22T04:00:47.710Z,91.30
2018-09-22T04:01:51.998Z,91.70
2018-09-22T04:02:56.409Z,92.40
2018-09-22T04:04:00.674Z,92.10
2018-09-22T04:05:06.070Z,91.40
2018-09-22T04:06:10.534Z,90.60
2018-09-22T04:07:14.857Z,89.60
2018-09-22T04:08:19.721Z,92.30
2018-09-22T04:09:24.062Z,92.80
2018-09-22T04:10:28.313Z,92.20
2018-09-22T04:11:32.610Z,92.30
2018-09-22T04:12:37.069Z,91.10
2018-09-22T04:13:41.384Z,92.90
2018-09-22T04:14:45.717Z,92.30
2018-09-22T04:15:49.998Z,91.60
2018-09-22T04:16:54.870Z,90.60
2018-09-22T04:17:59.343Z,90.40
2018-09-22T04:19:03.607Z,90.90
2018-09-22T04:20:07.924Z,92.10
2018-09-22T04:22:08.617Z,91.50
2018-09-22T04:23:12.853Z,90.80
2018-09-22T04:24:18.625Z,90.50
2018-09-22T04:25:22.886Z,90.80
2018-09-22T04:26:28.284Z,90.80
2018-09-22T04:27:33.649Z,90.90
2018-09-22T04:28:38.221Z,88.30
2018-09-22T04:29:42.469Z,89.60
2018-09-22T04:30:46.953Z,93.20
2018-09-22T04:31:51.209Z,92.70
2018-09-22T04:32:55.535Z,92.80
2018-09-22T04:34:00.006Z,92.70
2018-09-22T04:35:04.555Z,92.10
2018-09-22T04:36:09.665Z,92.00
2018-09-22T04:37:14.555Z,92.80
2018-09-22T04:38:19.206Z,92.80
2018-09-22T04:39:23.490Z,93.30
2018-09-22T04:40:27.724Z,93.30
2018-09-22T04:41:32.149Z,92.40
2018-09-22T04:42:36.393Z,93.60
2018-09-22T04:43:40.993Z,92.70
2018-09-22T04:44:45.235Z,92.60
2018-09-22T04:45:49.836Z,92.90
2018-09-22T04:46:54.279Z,93.80
2018-09-22T04:47:58.530Z,94.00
2018-09-22T04:49:03.001Z,93.50
2018-09-22T04:50:07.430Z,92.30
2018-09-22T04:51:11.952Z,93.50
2018-09-22T04:52:16.267Z,93.80
2018-09-22T04:53:21.097Z,94.20
2018-09-22T04:54:25.601Z,90.80
2018-09-22T04:55:29.861Z,92.50
2018-09-22T04:56:34.530Z,93.00
2018-09-22T04:57:38.869Z,92.00
2018-09-22T04:58:43.544Z,92.70
2018-09-22T04:59:47.832Z,93.60
2018-09-22T05:00:52.237Z,93.80
2018-09-22T05:01:56.541Z,91.70
2018-09-22T05:03:00.875Z,92.10
2018-09-22T05:04:05.263Z,93.20
2018-09-22T05:05:09.703Z,94.30
2018-09-22T05:06:14.263Z,93.40
2018-09-22T05:07:18.553Z,94.00
2018-09-22T05:08:23.139Z,94.10
2018-09-22T05:09:27.435Z,94.50
2018-09-22T05:10:31.737Z,94.00
2018-09-22T05:11:36.150Z,93.70
2018-09-22T05:12:40.506Z,93.60
2018-09-22T05:13:44.934Z,90.80
2018-09-22T05:14:49.482Z,90.30
2018-09-22T05:15:53.916Z,91.50
2018-09-22T05:16:58.640Z,91.60
2018-09-22T05:18:03.200Z,90.90
2018-09-22T05:19:07.464Z,92.90
2018-09-22T05:20:12.220Z,94.50
2018-09-22T05:21:16.545Z,93.90
2018-09-22T05:22:21.753Z,91.70
2018-09-22T05:23:26.014Z,90.40
2018-09-22T05:24:30.293Z,91.80
2018-09-22T05:25:35.345Z,91.30
2018-09-22T05:26:39.667Z,92.10
2018-09-22T05:27:43.893Z,92.70
2018-09-22T05:28:49.749Z,93.40
2018-09-22T05:29:55.251Z,92.70
2018-09-22T05:31:00.054Z,93.30
2018-09-22T05:32:04.550Z,94.20
2018-09-22T05:33:09.076Z,94.80
2018-09-22T05:34:13.581Z,93.30
2018-09-22T05:35:17.816Z,94.90
2018-09-22T05:36:22.524Z,91.60
2018-09-22T05:37:26.923Z,90.80
2018-09-22T05:38:31.197Z,90.60
2018-09-22T05:39:36.609Z,90.70
2018-09-22T05:40:40.869Z,90.50
2018-09-22T05:41:45.182Z,90.50
2018-09-22T05:42:50.372Z,90.40
2018-09-22T05:43:57.292Z,90.10
2018-09-22T05:45:01.650Z,90.30
2018-09-22T05:46:06.654Z,89.60
2018-09-22T05:47:11.005Z,89.00
2018-09-22T05:48:15.462Z,90.70
2018-09-22T05:49:20.054Z,90.00
2018-09-22T05:50:24.708Z,90.00
2018-09-22T05:51:29.330Z,90.10
2018-09-22T05:52:33.574Z,89.40
2018-09-22T05:53:38.700Z,88.80
2018-09-22T05:54:43.159Z,88.40
2018-09-22T05:55:47.905Z,88.40
2018-09-22T05:56:52.420Z,89.20
2018-09-22T05:57:57.317Z,89.30
2018-09-22T05:59:01.569Z,89.10
2018-09-22T06:00:06.294Z,89.20
2018-09-22T06:01:10.572Z,89.10
2018-09-22T06:02:14.831Z,89.00
2018-09-22T06:03:19.259Z,88.90
2018-09-22T06:04:24.134Z,88.90
2018-09-22T06:05:28.660Z,88.80
2018-09-22T06:06:34.618Z,88.70
2018-09-22T06:07:39.298Z,88.50
2018-09-22T06:08:43.834Z,88.10
2018-09-22T06:09:48.802Z,87.40
2018-09-22T06:10:53.189Z,87.50
2018-09-22T06:11:57.850Z,87.10
2018-09-22T06:13:04.028Z,87.50
2018-09-22T06:14:08.271Z,87.60
2018-09-22T06:15:13.489Z,87.60
2018-09-22T06:16:18.691Z,87.60
2018-09-22T06:17:23.370Z,87.60
2018-09-22T06:18:28.797Z,87.80
2018-09-22T06:19:34.609Z,88.00
2018-09-22T06:20:38.883Z,88.00
2018-09-22T06:21:43.774Z,88.00
2018-09-22T06:22:48.150Z,88.20
2018-09-22T06:23:53.177Z,88.40
2018-09-22T06:24:57.429Z,88.40
2018-09-22T06:26:01.709Z,88.90
2018-09-22T06:27:06.505Z,88.90
2018-09-22T06:28:11.119Z,88.60
2018-09-22T06:29:15.381Z,88.80
2018-09-22T06:30:22.821Z,90.00
2018-09-22T06:31:27.301Z,88.90
2018-09-22T06:32:31.813Z,88.90
2018-09-22T06:33:36.350Z,88.20
2018-09-22T06:34:41.624Z,87.90
2018-09-22T06:35:45.911Z,88.30
2018-09-22T06:36:51.386Z,88.90
2018-09-22T06:37:55.683Z,87.90
2018-09-22T06:38:59.903Z,88.00
2018-09-22T06:40:04.186Z,88.50
2018-09-22T06:41:08.654Z,89.60
2018-09-22T06:42:12.962Z,88.20
2018-09-22T06:43:18.099Z,88.80
2018-09-22T06:44:24.574Z,89.80
2018-09-22T06:45:29.888Z,87.70
2018-09-22T06:46:35.108Z,88.20
2018-09-22T06:47:39.312Z,89.80
2018-09-22T06:48:43.614Z,87.90
2018-09-22T06:49:47.938Z,87.90
2018-09-22T06:50:52.184Z,88.00
2018-09-22T06:51:56.682Z,89.30
2018-09-22T06:53:01.266Z,87.40
2018-09-22T06:54:05.510Z,87.60
2018-09-22T06:55:09.965Z,88.20
2018-09-22T06:56:14.233Z,88.30
2018-09-22T06:57:18.519Z,88.40
2018-09-22T06:58:23.173Z,88.30
2018-09-22T06:59:27.638Z,89.10
2018-09-22T07:00:31.974Z,88.00
2018-09-22T07:01:37.995Z,88.50
2018-09-22T07:02:42.389Z,88.90
2018-09-22T07:03:46.934Z,88.20
2018-09-22T07:04:51.359Z,90.90
2018-09-22T07:05:55.815Z,88.30
2018-09-22T07:07:01.668Z,88.20
2018-09-22T07:08:05.975Z,88.10
2018-09-22T07:09:10.296Z,88.30
2018-09-22T07:10:14.816Z,89.40
2018-09-22T07:11:19.281Z,88.00
2018-09-22T07:12:25.076Z,87.60
2018-09-22T07:13:30.173Z,87.50
2018-09-22T07:14:34.494Z,87.70
2018-09-22T07:15:39.420Z,87.80
2018-09-22T07:16:43.696Z,87.80
2018-09-22T07:17:48.142Z,87.50
2018-09-22T07:18:54.670Z,87.60
2018-09-22T07:19:59.025Z,87.90
2018-09-22T07:21:06.421Z,88.40
2018-09-22T07:22:16.158Z,88.50
2018-09-22T07:23:21.225Z,88.10
2018-09-22T07:24:25.647Z,88.20
2018-09-22T07:25:30.153Z,87.60
2018-09-22T07:26:34.858Z,87.00
2018-09-22T07:27:40.213Z,86.40
2018-09-22T07:28:45.609Z,87.10
2018-09-22T07:29:49.999Z,87.00
2018-09-22T07:30:54.390Z,87.30
2018-09-22T07:31:58.875Z,87.50
2018-09-22T07:33:03.548Z,87.50
2018-09-22T07:34:08.100Z,87.60
2018-09-22T07:35:12.365Z,87.20
2018-09-22T07:36:16.806Z,87.20
2018-09-22T07:37:21.229Z,87.50
2018-09-22T07:38:25.562Z,86.90
2018-09-22T07:39:30.108Z,86.50
2018-09-22T07:40:35.010Z,86.10
2018-09-22T07:41:39.523Z,86.60
2018-09-22T07:42:43.857Z,86.70
2018-09-22T07:43:49.201Z,86.90
2018-09-22T07:44:53.707Z,86.90
2018-09-22T07:45:59.112Z,87.40
2018-09-22T07:47:03.472Z,87.50
2018-09-22T07:48:08.153Z,86.90
2018-09-22T07:49:13.370Z,87.30
2018-09-22T07:50:17.722Z,87.50
2018-09-22T07:51:22.378Z,88.10
2018-09-22T07:52:27.600Z,87.20
2018-09-22T07:53:32.157Z,87.60
2018-09-22T07:54:36.680Z,87.90
2018-09-22T07:55:41.172Z,87.60
2018-09-22T07:56:45.891Z,88.10
2018-09-22T07:57:50.925Z,87.80
2018-09-22T07:58:55.510Z,87.60
2018-09-22T08:00:00.049Z,86.60
2018-09-22T08:01:04.369Z,87.30
2018-09-22T08:02:09.730Z,87.10
2018-09-22T08:03:14.977Z,88.50
2018-09-22T08:04:19.224Z,87.30
2018-09-22T08:05:23.545Z,87.70
2018-09-22T08:06:29.262Z,87.40
2018-09-22T08:07:33.649Z,86.90
2018-09-22T08:08:38.245Z,87.10
2018-09-22T08:09:42.722Z,87.10
2018-09-22T08:10:47.030Z,86.20
2018-09-22T08:11:51.462Z,86.40
2018-09-22T08:12:55.789Z,85.80
2018-09-22T08:14:02.017Z,85.30
2018-09-22T08:15:08.313Z,85.20
2018-09-22T08:16:12.698Z,85.20
2018-09-22T08:17:17.948Z,85.30
2018-09-22T08:18:23.406Z,85.30
2018-09-22T08:19:30.225Z,85.40
2018-09-22T08:20:41.751Z,84.90
2018-09-22T08:21:46.689Z,85.00
2018-09-22T08:22:51.254Z,84.70
2018-09-22T08:23:55.608Z,84.50
2018-09-22T08:25:01.816Z,84.50
2018-09-22T08:26:06.750Z,82.90
2018-09-22T08:27:13.691Z,84.70
2018-09-22T08:28:19.383Z,85.00
2018-09-22T08:29:24.858Z,84.50
2018-09-22T08:30:29.245Z,84.50
2018-09-22T08:31:35.860Z,83.90
2018-09-22T08:32:41.073Z,84.70
2018-09-22T08:33:46.827Z,84.00
2018-09-22T08:34:51.174Z,83.50
2018-09-22T08:35:56.370Z,82.80
2018-09-22T08:37:01.473Z,83.20
2018-09-22T08:38:05.837Z,83.30
2018-09-22T08:39:13.845Z,83.20
2018-09-22T08:40:19.263Z,83.20
2018-09-22T08:41:26.335Z,82.90
2018-09-22T08:42:31.647Z,82.00
2018-09-22T08:43:43.500Z,82.30
2018-09-22T08:45:04.406Z,82.30
2018-09-22T08:46:09.265Z,81.40
2018-09-22T08:47:13.561Z,81.00
2018-09-22T08:48:23.270Z,82.20
2018-09-22T08:49:30.477Z,81.70
2018-09-22T08:50:35.204Z,81.80
2018-09-22T08:51:47.373Z,81.70
2018-09-22T08:52:55.565Z,82.10
2018-09-22T08:54:06.652Z,82.10
2018-09-22T08:55:13.589Z,81.80
2018-09-22T08:56:19.256Z,82.10
2018-09-22T08:57:33.312Z,81.80
2018-09-22T08:58:38.846Z,82.10
2018-09-22T08:59:44.280Z,82.60
2018-09-22T09:00:52.274Z,82.60
2018-09-22T09:01:57.094Z,82.10
2018-09-22T09:03:01.406Z,81.50
2018-09-22T09:04:05.917Z,81.30
2018-09-22T09:05:14.732Z,80.70
2018-09-22T09:06:20.767Z,80.70
2018-09-22T09:07:29.948Z,80.60
2018-09-22T09:08:37.706Z,80.00
2018-09-22T09:09:46.302Z,80.00
2018-09-22T09:10:50.841Z,78.50
2018-09-22T09:12:00.869Z,78.50
2018-09-22T09:13:06.350Z,78.40
2018-09-22T09:14:12.991Z,78.20
2018-09-22T09:15:17.559Z,77.10
2018-09-22T09:16:22.868Z,77.00
2018-09-22T09:18:30.419Z,75.40
2018-09-22T09:19:37.928Z,76.50
2018-09-22T09:20:42.729Z,76.60
2018-09-22T09:21:49.358Z,76.60
2018-09-22T09:22:56.032Z,75.90
2018-09-22T09:24:00.883Z,75.90
2018-09-22T09:25:05.601Z,75.30
2018-09-22T09:26:10.725Z,75.50
2018-09-22T09:27:15.092Z,75.60
2018-09-22T09:28:21.497Z,76.00
2018-09-22T09:29:27.348Z,76.20
2018-09-22T09:30:32.633Z,74.70
2018-09-22T09:31:37.976Z,73.50
2018-09-22T09:32:45.314Z,74.40
2018-09-22T09:33:54.373Z,74.40
2018-09-22T09:34:59.307Z,75.30
2018-09-22T09:36:04.230Z,74.10
2018-09-22T09:42:40.492Z,73.80
2018-09-22T09:43:50.649Z,73.60
2018-09-22T09:44:58.050Z,72.60
2018-09-22T09:46:02.558Z,70.60
2018-09-22T09:47:09.894Z,70.50
2018-09-22T09:48:16.739Z,71.00
2018-09-22T09:49:23.880Z,69.80
2018-09-22T09:50:32.329Z,70.00
2018-09-22T09:51:37.633Z,69.10
2018-09-22T09:52:44.830Z,68.80
2018-09-22T09:53:52.393Z,68.90
2018-09-22T09:54:58.312Z,68.80
2018-09-22T09:56:05.844Z,67.10
2018-09-22T09:57:12.807Z,67.20
2018-09-22T09:58:18.208Z,67.40
2018-09-22T09:59:23.327Z,67.90
2018-09-22T10:00:32.726Z,67.20
2018-09-22T10:01:37.800Z,63.80
2018-09-22T10:02:42.296Z,63.10
2018-09-22T10:04:01.323Z,63.40
2018-09-22T10:05:15.565Z,62.60
2018-09-22T10:06:19.880Z,63.20
2018-09-22T10:07:25.347Z,63.70
2018-09-22T10:08:32.309Z,62.80
2018-09-22T10:09:39.785Z,62.70
2018-09-22T10:10:45.372Z,61.20
2018-09-22T10:12:16.837Z,61.10
2018-09-22T10:13:24.957Z,61.20
2018-09-22T10:14:33.853Z,59.00
2018-09-22T10:15:38.429Z,57.50
2018-09-22T10:16:44.245Z,57.90
2018-09-22T10:17:51.748Z,57.80
2018-09-22T10:18:58.551Z,58.00
2018-09-22T10:20:04.697Z,58.40
2018-09-22T10:21:09.264Z,58.80
2018-09-22T10:22:21.686Z,59.20
2018-09-22T10:23:27.947Z,59.60
2018-09-22T10:24:37.152Z,60.10
2018-09-22T10:25:47.459Z,60.60
2018-09-22T10:26:52.601Z,61.70
2018-09-22T10:33:29.215Z,62.60
2018-09-22T10:34:40.779Z,63.20
2018-09-22T10:35:46.419Z,65.60
2018-09-22T10:36:50.758Z,65.40
2018-09-22T10:37:56.423Z,66.00
2018-09-22T10:39:02.330Z,66.30
2018-09-22T10:40:07.375Z,66.70
2018-09-22T10:41:12.449Z,66.90
2018-09-22T10:42:19.138Z,66.80
2018-09-22T10:43:24.153Z,65.60
2018-09-22T10:44:29.516Z,64.00
2018-09-22T10:45:53.302Z,65.50
2018-09-22T10:46:58.309Z,65.90
2018-09-22T10:48:03.355Z,65.80
2018-09-22T10:49:10.919Z,65.20
2018-09-22T10:50:15.930Z,64.80
2018-09-22T10:51:27.639Z,64.60
2018-09-22T10:58:06.205Z,65.80
2018-09-22T10:59:14.251Z,66.30
2018-09-22T11:00:19.802Z,66.70
2018-09-22T11:01:26.824Z,66.40
2018-09-22T11:02:32.588Z,66.40
2018-09-22T11:03:37.960Z,67.10
2018-09-22T11:04:42.226Z,66.60
2018-09-22T11:05:47.441Z,66.80
2018-09-22T11:06:54.249Z,66.10
2018-09-22T11:08:14.508Z,66.90
2018-09-22T11:09:19.281Z,67.20
2018-09-22T11:10:25.946Z,67.80
2018-09-22T11:11:30.497Z,66.90
2018-09-22T11:12:35.545Z,65.70
2018-09-22T11:13:39.868Z,65.90
2018-09-22T11:14:44.862Z,64.50
2018-09-22T11:15:50.658Z,64.50
2018-09-22T11:16:55.169Z,64.10
2018-09-22T11:17:59.660Z,64.00
2018-09-22T11:19:05.718Z,63.60
2018-09-22T11:20:11.569Z,62.70
2018-09-22T11:21:17.740Z,63.00
2018-09-22T11:22:28.444Z,63.10
2018-09-22T11:23:33.199Z,62.10
2018-09-22T11:24:37.756Z,61.10
2018-09-22T11:25:42.142Z,60.70
2018-09-22T11:26:47.361Z,60.50
2018-09-22T11:27:51.966Z,60.60
2018-09-22T11:28:56.274Z,61.10
2018-09-22T11:30:01.536Z,61.20
2018-09-22T11:31:06.934Z,61.50
2018-09-22T11:33:17.060Z,61.90
2018-09-22T11:34:21.489Z,62.00
2018-09-22T11:35:25.828Z,62.60
2018-09-22T11:36:31.019Z,62.20
2018-09-22T11:37:35.350Z,62.60
2018-09-22T11:38:39.809Z,61.80
2018-09-22T11:39:44.345Z,61.50
2018-09-22T11:40:49.254Z,63.50
2018-09-22T11:41:53.847Z,63.90
2018-09-22T11:42:58.933Z,63.50
2018-09-22T11:44:03.507Z,62.90
2018-09-22T11:45:09.451Z,64.00
2018-09-22T11:46:15.910Z,62.70
2018-09-22T11:47:20.289Z,61.80
2018-09-22T11:48:24.928Z,61.40
2018-09-22T11:49:29.730Z,61.40
2018-09-22T11:50:34.808Z,61.20
2018-09-22T11:51:42.014Z,60.90
2018-09-22T11:52:48.413Z,61.00
2018-09-22T11:53:53.257Z,60.70
2018-09-22T11:54:57.566Z,60.80
2018-09-22T11:56:02.298Z,59.60
2018-09-22T11:57:07.501Z,60.50
2018-09-22T11:58:13.115Z,58.00
2018-09-22T11:59:17.694Z,57.80
2018-09-22T12:00:23.378Z,56.90
2018-09-22T12:01:28.250Z,56.70
2018-09-22T12:02:33.561Z,56.10
2018-09-22T12:03:37.825Z,55.70
2018-09-22T12:04:42.135Z,55.60
2018-09-22T12:05:46.462Z,56.30
2018-09-22T12:06:52.652Z,55.60
2018-09-22T12:07:56.987Z,55.80
2018-09-22T12:09:05.339Z,56.40
2018-09-22T12:10:10.759Z,56.70
2018-09-22T12:11:15.020Z,55.50
2018-09-22T12:12:19.825Z,56.90
2018-09-22T12:13:24.409Z,57.90
2018-09-22T12:14:28.695Z,57.90
2018-09-22T12:15:33.251Z,58.40
2018-09-22T12:16:37.504Z,58.00
2018-09-22T12:17:41.813Z,57.80
2018-09-22T12:18:46.351Z,57.40
2018-09-22T12:19:50.636Z,57.50
2018-09-22T12:20:54.998Z,57.50
2018-09-22T12:21:59.439Z,57.60
2018-09-22T12:23:05.493Z,57.50
2018-09-22T12:24:12.220Z,57.40
2018-09-22T12:25:16.811Z,57.90
2018-09-22T12:26:21.665Z,57.60
2018-09-22T12:27:26.866Z,58.10
2018-09-22T12:28:31.350Z,58.40
2018-09-22T12:29:37.053Z,58.00
2018-09-22T12:30:45.842Z,58.60
2018-09-22T12:31:50.243Z,57.70
2018-09-22T12:32:56.300Z,57.90
2018-09-22T12:34:01.225Z,57.60
2018-09-22T12:35:08.120Z,57.60
2018-09-22T12:36:13.881Z,57.20
2018-09-22T12:37:18.827Z,56.10
2018-09-22T12:38:23.832Z,55.60
2018-09-22T12:39:28.655Z,55.20
2018-09-22T12:40:33.359Z,54.70
2018-09-22T12:41:40.948Z,54.00
2018-09-22T12:42:46.901Z,54.00
2018-09-22T12:43:52.332Z,53.80
2018-09-22T12:44:56.993Z,53.80
2018-09-22T12:46:01.750Z,53.80
2018-09-22T12:47:13.785Z,53.70
2018-09-22T12:48:20.571Z,53.70
2018-09-22T12:50:42.199Z,53.90
2018-09-22T12:51:48.683Z,53.80
2018-09-22T12:52:56.783Z,54.00
2018-09-22T12:54:01.365Z,53.90
2018-09-22T12:55:07.703Z,53.70
2018-09-22T12:56:12.810Z,53.10
2018-09-22T12:57:18.260Z,53.40
2018-09-22T12:58:24.669Z,53.40
2018-09-22T12:59:32.641Z,55.30
2018-09-22T13:00:41.540Z,53.70
2018-09-22T13:01:46.269Z,56.30
2018-09-22T13:02:55.483Z,55.00
2018-09-22T13:04:00.289Z,53.70
2018-09-22T13:05:10.043Z,55.20
2018-09-22T13:06:16.437Z,54.40
2018-09-22T13:07:22.012Z,56.60
2018-09-22T13:08:34.795Z,55.20
2018-09-22T13:09:43.258Z,54.90
2018-09-22T13:10:47.816Z,55.60
2018-09-22T13:11:55.340Z,56.80
2018-09-22T13:13:02.229Z,57.80
2018-09-22T13:14:07.141Z,56.00
2018-09-22T13:15:12.288Z,56.80
2018-09-22T13:16:17.707Z,56.50
2018-09-22T13:17:24.019Z,57.80
2018-09-22T13:18:33.274Z,56.70
2018-09-22T13:19:41.901Z,56.60
2018-09-22T13:20:48.323Z,57.00
2018-09-22T13:21:56.412Z,57.60
2018-09-22T13:23:14.226Z,58.20
2018-09-22T13:24:23.994Z,59.40
2018-09-22T13:25:41.437Z,62.40
2018-09-22T13:26:54.804Z,70.30
2018-09-22T13:28:22.066Z,72.30
2018-09-22T13:29:32.831Z,81.40
2018-09-22T13:30:55.128Z,87.00
2018-09-22T13:37:54.781Z,90.90
2018-09-22T13:38:59.820Z,91.30
2018-09-22T13:40:05.307Z,92.20
2018-09-22T13:41:10.464Z,92.40
2018-09-22T13:42:16.324Z,91.00
2018-09-22T13:43:21.423Z,91.50
2018-09-22T13:44:27.265Z,91.60
2018-09-22T13:45:32.053Z,91.70
2018-09-22T13:46:38.360Z,91.40
2018-09-22T13:47:44.142Z,92.40
2018-09-22T13:48:55.132Z,92.90
2018-09-22T13:50:03.435Z,93.50
2018-09-22T13:51:10.324Z,94.70
2018-09-22T13:53:54.934Z,98.80
2018-09-22T13:55:07.031Z,97.80
2018-09-22T13:56:13.508Z,99.30
2018-09-22T13:57:24.272Z,99.90
2018-09-22T13:58:31.621Z,99.90
2018-09-22T13:59:37.664Z,99.10
2018-09-22T14:00:43.729Z,99.20
2018-09-22T14:03:04.205Z,99.50
2018-09-22T14:05:25.020Z,99.90
2018-09-22T14:06:31.297Z,99.90
2018-09-22T14:07:36.586Z,99.90
2018-09-22T14:08:45.879Z,99.90
2018-09-22T14:09:50.673Z,99.90
2018-09-22T14:10:56.877Z,99.70
2018-09-22T14:12:01.414Z,99.90
2018-09-22T14:13:08.140Z,99.90
2018-09-22T14:14:14.527Z,99.90
2018-09-22T14:15:20.643Z,99.90
2018-09-22T14:16:25.457Z,99.90
2018-09-22T14:17:30.664Z,99.90
2018-09-22T14:18:35.271Z,99.90
2018-09-22T14:19:40.325Z,99.90
2018-09-22T14:20:45.841Z,99.90
2018-09-22T14:21:51.041Z,99.90
2018-09-22T14:22:57.905Z,99.90
2018-09-22T14:24:02.676Z,99.90
2018-09-22T14:25:09.011Z,99.90
2018-09-22T14:26:17.213Z,99.90
2018-09-22T14:27:21.818Z,99.90
2018-09-22T14:28:26.603Z,99.90
2018-09-22T14:29:31.151Z,99.90
2018-09-22T14:30:38.302Z,99.90
2018-09-22T14:31:43.416Z,99.90
2018-09-22T14:32:50.446Z,99.40
2018-09-22T14:33:55.123Z,99.90
2018-09-22T14:34:59.764Z,99.90
2018-09-22T14:36:05.350Z,99.90
2018-09-22T14:37:10.651Z,99.90
2018-09-22T14:38:15.043Z,99.90